sensor_id;sensor_type;location;lat;lon;timestamp;P1;durP1;ratioP1;P2;durP2;ratioP2
75246;SDS011;63844;50.042;19.224;2022-10-17T00:02:04;40.60;;;22.30;;
75246;SDS011;63844;50.042;19.224;2022-10-17T00:04:30;44.00;;;22.10;;
75246;SDS011;63844;50.042;19.224;2022-10-17T00:06:57;42.90;;;23.70;;
75246;SDS011;63844;50.042;19.224;2022-10-17T00:09:23;48.00;;;24.40;;
75246;SDS011;63844;50.042;19.224;2022-10-17T00:11:49;48.40;;;25.70;;
75246;SDS011;63844;50.042;19.224;2022-10-17T00:14:16;52.70;;;30.30;;
75246;SDS011;63844;50.042;19.224;2022-10-17T00:16:42;48.90;;;30.00;;
75246;SDS011;63844;50.042;19.224;2022-10-17T00:19:08;50.50;;;28.20;;
75246;SDS011;63844;50.042;19.224;2022-10-17T00:21:34;49.20;;;26.50;;
75246;SDS011;63844;50.042;19.224;2022-10-17T00:24:01;42.00;;;24.40;;
75246;SDS011;63844;50.042;19.224;2022-10-17T00:26:27;41.10;;;24.20;;
75246;SDS011;63844;50.042;19.224;2022-10-17T00:28:54;39.90;;;24.80;;
75246;SDS011;63844;50.042;19.224;2022-10-17T00:33:48;46.40;;;27.10;;
75246;SDS011;63844;50.042;19.224;2022-10-17T00:36:17;50.20;;;28.30;;
75246;SDS011;63844;50.042;19.224;2022-10-17T00:38:46;48.10;;;25.80;;
75246;SDS011;63844;50.042;19.224;2022-10-17T00:41:16;49.70;;;27.00;;
75246;SDS011;63844;50.042;19.224;2022-10-17T00:46:34;45.10;;;24.50;;
75246;SDS011;63844;50.042;19.224;2022-10-17T00:49:05;44.00;;;25.90;;
75246;SDS011;63844;50.042;19.224;2022-10-17T00:51:50;48.20;;;26.20;;
75246;SDS011;63844;50.042;19.224;2022-10-17T00:54:20;45.60;;;24.80;;
75246;SDS011;63844;50.042;19.224;2022-10-17T00:56:49;45.70;;;24.90;;
75246;SDS011;63844;50.042;19.224;2022-10-17T00:59:17;43.20;;;23.90;;
75246;SDS011;63844;50.042;19.224;2022-10-17T01:01:49;41.70;;;23.90;;
75246;SDS011;63844;50.042;19.224;2022-10-17T01:04:27;45.30;;;27.50;;
75246;SDS011;63844;50.042;19.224;2022-10-17T01:06:53;45.30;;;24.30;;
75246;SDS011;63844;50.042;19.224;2022-10-17T01:09:19;44.80;;;25.50;;
75246;SDS011;63844;50.042;19.224;2022-10-17T01:14:25;39.70;;;22.90;;
75246;SDS011;63844;50.042;19.224;2022-10-17T01:16:59;42.70;;;23.50;;
75246;SDS011;63844;50.042;19.224;2022-10-17T01:22:26;41.60;;;22.20;;
75246;SDS011;63844;50.042;19.224;2022-10-17T01:25:11;41.50;;;22.10;;
75246;SDS011;63844;50.042;19.224;2022-10-17T01:27:55;39.70;;;21.70;;
75246;SDS011;63844;50.042;19.224;2022-10-17T01:33:29;41.20;;;23.80;;
75246;SDS011;63844;50.042;19.224;2022-10-17T01:36:08;43.50;;;24.50;;
75246;SDS011;63844;50.042;19.224;2022-10-17T01:38:43;41.10;;;23.00;;
75246;SDS011;63844;50.042;19.224;2022-10-17T01:41:26;44.10;;;27.10;;
75246;SDS011;63844;50.042;19.224;2022-10-17T01:46:39;40.40;;;23.50;;
75246;SDS011;63844;50.042;19.224;2022-10-17T01:49:12;40.10;;;23.90;;
75246;SDS011;63844;50.042;19.224;2022-10-17T01:51:45;39.30;;;22.80;;
75246;SDS011;63844;50.042;19.224;2022-10-17T01:54:23;38.70;;;22.50;;
75246;SDS011;63844;50.042;19.224;2022-10-17T01:56:57;40.60;;;23.00;;
75246;SDS011;63844;50.042;19.224;2022-10-17T01:59:32;40.10;;;23.20;;
75246;SDS011;63844;50.042;19.224;2022-10-17T02:02:03;40.20;;;22.70;;
75246;SDS011;63844;50.042;19.224;2022-10-17T02:04:30;38.00;;;22.00;;
75246;SDS011;63844;50.042;19.224;2022-10-17T02:07:04;40.10;;;24.30;;
75246;SDS011;63844;50.042;19.224;2022-10-17T02:09:31;41.30;;;23.20;;
75246;SDS011;63844;50.042;19.224;2022-10-17T02:12:13;46.00;;;24.50;;
75246;SDS011;63844;50.042;19.224;2022-10-17T02:17:50;39.30;;;22.20;;
75246;SDS011;63844;50.042;19.224;2022-10-17T02:28:46;38.20;;;22.10;;
75246;SDS011;63844;50.042;19.224;2022-10-17T02:31:22;35.60;;;20.80;;
75246;SDS011;63844;50.042;19.224;2022-10-17T02:33:55;40.00;;;20.50;;
75246;SDS011;63844;50.042;19.224;2022-10-17T02:36:28;34.70;;;19.00;;
75246;SDS011;63844;50.042;19.224;2022-10-17T02:38:59;35.20;;;21.30;;
75246;SDS011;63844;50.042;19.224;2022-10-17T02:41:28;36.10;;;21.40;;
75246;SDS011;63844;50.042;19.224;2022-10-17T02:43:56;35.20;;;20.80;;
75246;SDS011;63844;50.042;19.224;2022-10-17T02:46:23;38.30;;;21.90;;
75246;SDS011;63844;50.042;19.224;2022-10-17T02:48:53;37.60;;;21.10;;
75246;SDS011;63844;50.042;19.224;2022-10-17T02:51:34;39.20;;;23.70;;
75246;SDS011;63844;50.042;19.224;2022-10-17T02:56:50;37.00;;;21.20;;
75246;SDS011;63844;50.042;19.224;2022-10-17T02:59:20;33.10;;;19.50;;
75246;SDS011;63844;50.042;19.224;2022-10-17T03:01:49;38.70;;;20.70;;
75246;SDS011;63844;50.042;19.224;2022-10-17T03:04:17;37.80;;;20.80;;
75246;SDS011;63844;50.042;19.224;2022-10-17T03:06:45;35.60;;;20.50;;
75246;SDS011;63844;50.042;19.224;2022-10-17T03:09:14;37.70;;;21.10;;
75246;SDS011;63844;50.042;19.224;2022-10-17T03:11:41;33.40;;;20.60;;
75246;SDS011;63844;50.042;19.224;2022-10-17T03:14:07;33.60;;;19.70;;
75246;SDS011;63844;50.042;19.224;2022-10-17T03:16:34;33.90;;;21.40;;
75246;SDS011;63844;50.042;19.224;2022-10-17T03:19:00;34.00;;;19.10;;
75246;SDS011;63844;50.042;19.224;2022-10-17T03:21:26;34.80;;;20.30;;
75246;SDS011;63844;50.042;19.224;2022-10-17T03:23:53;32.90;;;17.70;;
75246;SDS011;63844;50.042;19.224;2022-10-17T03:26:19;32.90;;;19.40;;
75246;SDS011;63844;50.042;19.224;2022-10-17T03:31:13;34.50;;;19.40;;
75246;SDS011;63844;50.042;19.224;2022-10-17T03:33:40;35.10;;;19.30;;
75246;SDS011;63844;50.042;19.224;2022-10-17T03:36:11;38.40;;;20.80;;
75246;SDS011;63844;50.042;19.224;2022-10-17T03:38:39;34.30;;;18.30;;
75246;SDS011;63844;50.042;19.224;2022-10-17T03:41:05;36.60;;;19.30;;
75246;SDS011;63844;50.042;19.224;2022-10-17T03:43:32;38.60;;;19.80;;
75246;SDS011;63844;50.042;19.224;2022-10-17T03:45:59;36.60;;;20.50;;
75246;SDS011;63844;50.042;19.224;2022-10-17T03:48:26;36.90;;;21.60;;
75246;SDS011;63844;50.042;19.224;2022-10-17T03:50:58;32.60;;;18.00;;
75246;SDS011;63844;50.042;19.224;2022-10-17T03:53:29;32.40;;;18.90;;
75246;SDS011;63844;50.042;19.224;2022-10-17T03:55:55;29.10;;;17.60;;
75246;SDS011;63844;50.042;19.224;2022-10-17T04:00:48;32.90;;;19.80;;
75246;SDS011;63844;50.042;19.224;2022-10-17T04:03:15;35.40;;;20.20;;
75246;SDS011;63844;50.042;19.224;2022-10-17T04:05:41;40.70;;;23.30;;
75246;SDS011;63844;50.042;19.224;2022-10-17T04:08:07;40.20;;;24.50;;
75246;SDS011;63844;50.042;19.224;2022-10-17T04:10:34;38.90;;;21.70;;
75246;SDS011;63844;50.042;19.224;2022-10-17T04:13:00;37.00;;;23.40;;
75246;SDS011;63844;50.042;19.224;2022-10-17T04:15:26;42.20;;;23.10;;
75246;SDS011;63844;50.042;19.224;2022-10-17T04:17:53;38.40;;;22.30;;
75246;SDS011;63844;50.042;19.224;2022-10-17T04:20:19;38.00;;;21.10;;
75246;SDS011;63844;50.042;19.224;2022-10-17T04:22:45;35.00;;;20.20;;
75246;SDS011;63844;50.042;19.224;2022-10-17T04:25:11;34.30;;;19.90;;
75246;SDS011;63844;50.042;19.224;2022-10-17T04:27:38;33.70;;;19.30;;
75246;SDS011;63844;50.042;19.224;2022-10-17T04:30:04;34.70;;;18.60;;
75246;SDS011;63844;50.042;19.224;2022-10-17T04:32:34;35.30;;;19.50;;
75246;SDS011;63844;50.042;19.224;2022-10-17T04:35:01;38.30;;;21.40;;
75246;SDS011;63844;50.042;19.224;2022-10-17T04:37:28;36.30;;;20.50;;
75246;SDS011;63844;50.042;19.224;2022-10-17T04:39:55;34.00;;;20.40;;
75246;SDS011;63844;50.042;19.224;2022-10-17T04:42:21;33.90;;;18.50;;
75246;SDS011;63844;50.042;19.224;2022-10-17T04:44:48;33.90;;;19.70;;
75246;SDS011;63844;50.042;19.224;2022-10-17T04:47:14;32.00;;;18.80;;
75246;SDS011;63844;50.042;19.224;2022-10-17T04:49:40;31.60;;;19.10;;
75246;SDS011;63844;50.042;19.224;2022-10-17T04:52:07;35.30;;;19.20;;
75246;SDS011;63844;50.042;19.224;2022-10-17T04:54:33;32.70;;;18.40;;
75246;SDS011;63844;50.042;19.224;2022-10-17T04:56:59;34.20;;;18.40;;
75246;SDS011;63844;50.042;19.224;2022-10-17T04:59:27;34.00;;;18.30;;
75246;SDS011;63844;50.042;19.224;2022-10-17T05:01:54;40.20;;;23.00;;
75246;SDS011;63844;50.042;19.224;2022-10-17T05:04:20;36.70;;;20.70;;
75246;SDS011;63844;50.042;19.224;2022-10-17T05:06:46;37.40;;;20.10;;
75246;SDS011;63844;50.042;19.224;2022-10-17T05:09:13;33.30;;;19.50;;
75246;SDS011;63844;50.042;19.224;2022-10-17T05:11:40;32.70;;;18.90;;
75246;SDS011;63844;50.042;19.224;2022-10-17T05:14:07;33.70;;;19.10;;
75246;SDS011;63844;50.042;19.224;2022-10-17T05:16:34;39.40;;;20.20;;
75246;SDS011;63844;50.042;19.224;2022-10-17T05:19:01;34.60;;;20.60;;
75246;SDS011;63844;50.042;19.224;2022-10-17T05:21:28;39.30;;;22.50;;
75246;SDS011;63844;50.042;19.224;2022-10-17T05:23:55;35.80;;;19.20;;
75246;SDS011;63844;50.042;19.224;2022-10-17T05:26:22;37.10;;;20.80;;
75246;SDS011;63844;50.042;19.224;2022-10-17T05:28:49;35.10;;;18.60;;
75246;SDS011;63844;50.042;19.224;2022-10-17T05:31:17;40.00;;;21.00;;
75246;SDS011;63844;50.042;19.224;2022-10-17T05:33:44;33.80;;;20.30;;
75246;SDS011;63844;50.042;19.224;2022-10-17T05:36:10;35.10;;;20.40;;
75246;SDS011;63844;50.042;19.224;2022-10-17T05:38:36;36.20;;;22.50;;
75246;SDS011;63844;50.042;19.224;2022-10-17T05:41:03;34.50;;;19.20;;
75246;SDS011;63844;50.042;19.224;2022-10-17T05:43:31;34.40;;;18.80;;
75246;SDS011;63844;50.042;19.224;2022-10-17T05:46:01;36.10;;;18.70;;
75246;SDS011;63844;50.042;19.224;2022-10-17T05:48:29;33.50;;;19.70;;
75246;SDS011;63844;50.042;19.224;2022-10-17T05:50:59;38.40;;;22.30;;
75246;SDS011;63844;50.042;19.224;2022-10-17T05:53:31;36.80;;;21.10;;
75246;SDS011;63844;50.042;19.224;2022-10-17T05:55:59;39.90;;;21.40;;
75246;SDS011;63844;50.042;19.224;2022-10-17T05:58:27;42.20;;;21.60;;
75246;SDS011;63844;50.042;19.224;2022-10-17T06:00:57;35.50;;;20.50;;
75246;SDS011;63844;50.042;19.224;2022-10-17T06:03:25;34.90;;;20.10;;
75246;SDS011;63844;50.042;19.224;2022-10-17T06:05:52;38.10;;;21.60;;
75246;SDS011;63844;50.042;19.224;2022-10-17T06:08:19;39.80;;;22.60;;
75246;SDS011;63844;50.042;19.224;2022-10-17T06:10:49;38.00;;;23.00;;
75246;SDS011;63844;50.042;19.224;2022-10-17T06:13:16;38.70;;;22.20;;
75246;SDS011;63844;50.042;19.224;2022-10-17T06:15:43;38.50;;;22.70;;
75246;SDS011;63844;50.042;19.224;2022-10-17T06:18:10;39.80;;;21.40;;
75246;SDS011;63844;50.042;19.224;2022-10-17T06:20:37;43.00;;;22.70;;
75246;SDS011;63844;50.042;19.224;2022-10-17T06:23:04;41.00;;;22.50;;
75246;SDS011;63844;50.042;19.224;2022-10-17T06:25:31;39.60;;;22.40;;
75246;SDS011;63844;50.042;19.224;2022-10-17T06:27:58;39.10;;;22.50;;
75246;SDS011;63844;50.042;19.224;2022-10-17T06:30:25;42.10;;;23.40;;
75246;SDS011;63844;50.042;19.224;2022-10-17T06:32:51;43.00;;;23.60;;
75246;SDS011;63844;50.042;19.224;2022-10-17T06:35:18;45.50;;;25.90;;
75246;SDS011;63844;50.042;19.224;2022-10-17T06:37:46;47.20;;;25.60;;
75246;SDS011;63844;50.042;19.224;2022-10-17T06:42:40;43.50;;;24.70;;
75246;SDS011;63844;50.042;19.224;2022-10-17T06:45:07;41.30;;;23.00;;
75246;SDS011;63844;50.042;19.224;2022-10-17T06:47:34;42.80;;;22.50;;
75246;SDS011;63844;50.042;19.224;2022-10-17T06:50:01;41.90;;;22.90;;
75246;SDS011;63844;50.042;19.224;2022-10-17T06:52:27;41.20;;;23.00;;
75246;SDS011;63844;50.042;19.224;2022-10-17T06:54:53;42.90;;;25.10;;
75246;SDS011;63844;50.042;19.224;2022-10-17T06:57:20;42.80;;;24.70;;
75246;SDS011;63844;50.042;19.224;2022-10-17T06:59:46;44.10;;;24.40;;
75246;SDS011;63844;50.042;19.224;2022-10-17T07:04:39;44.50;;;25.90;;
75246;SDS011;63844;50.042;19.224;2022-10-17T07:07:05;43.60;;;25.80;;
75246;SDS011;63844;50.042;19.224;2022-10-17T07:09:32;47.60;;;25.70;;
75246;SDS011;63844;50.042;19.224;2022-10-17T07:11:58;38.90;;;24.00;;
75246;SDS011;63844;50.042;19.224;2022-10-17T07:14:25;35.30;;;21.80;;
75246;SDS011;63844;50.042;19.224;2022-10-17T07:16:57;38.70;;;20.90;;
75246;SDS011;63844;50.042;19.224;2022-10-17T07:19:24;33.30;;;19.50;;
75246;SDS011;63844;50.042;19.224;2022-10-17T07:21:52;32.10;;;18.40;;
75246;SDS011;63844;50.042;19.224;2022-10-17T07:24:19;38.10;;;21.70;;
75246;SDS011;63844;50.042;19.224;2022-10-17T07:26:45;35.70;;;20.90;;
75246;SDS011;63844;50.042;19.224;2022-10-17T07:29:12;28.50;;;16.50;;
75246;SDS011;63844;50.042;19.224;2022-10-17T07:31:38;30.70;;;18.10;;
75246;SDS011;63844;50.042;19.224;2022-10-17T07:34:05;28.90;;;17.20;;
75246;SDS011;63844;50.042;19.224;2022-10-17T07:36:31;38.80;;;18.70;;
75246;SDS011;63844;50.042;19.224;2022-10-17T07:41:24;30.00;;;18.50;;
75246;SDS011;63844;50.042;19.224;2022-10-17T07:43:50;31.10;;;18.00;;
75246;SDS011;63844;50.042;19.224;2022-10-17T07:46:16;31.30;;;16.40;;
75246;SDS011;63844;50.042;19.224;2022-10-17T07:48:43;28.10;;;16.80;;
75246;SDS011;63844;50.042;19.224;2022-10-17T07:51:09;23.70;;;14.00;;
75246;SDS011;63844;50.042;19.224;2022-10-17T07:53:36;29.70;;;18.90;;
75246;SDS011;63844;50.042;19.224;2022-10-17T07:56:05;27.60;;;16.80;;
75246;SDS011;63844;50.042;19.224;2022-10-17T07:58:33;34.50;;;17.80;;
75246;SDS011;63844;50.042;19.224;2022-10-17T08:01:04;21.40;;;12.00;;
75246;SDS011;63844;50.042;19.224;2022-10-17T08:03:33;21.80;;;13.10;;
75246;SDS011;63844;50.042;19.224;2022-10-17T08:06:00;19.60;;;12.70;;
75246;SDS011;63844;50.042;19.224;2022-10-17T08:08:27;23.40;;;13.60;;
75246;SDS011;63844;50.042;19.224;2022-10-17T08:13:26;23.90;;;14.90;;
75246;SDS011;63844;50.042;19.224;2022-10-17T08:15:52;23.90;;;15.70;;
75246;SDS011;63844;50.042;19.224;2022-10-17T08:20:45;27.40;;;16.40;;
75246;SDS011;63844;50.042;19.224;2022-10-17T08:23:11;23.60;;;13.70;;
75246;SDS011;63844;50.042;19.224;2022-10-17T08:25:37;28.40;;;16.30;;
75246;SDS011;63844;50.042;19.224;2022-10-17T08:28:05;28.30;;;14.80;;
75246;SDS011;63844;50.042;19.224;2022-10-17T08:30:32;22.10;;;14.10;;
75246;SDS011;63844;50.042;19.224;2022-10-17T08:32:58;25.90;;;16.70;;
75246;SDS011;63844;50.042;19.224;2022-10-17T08:35:25;26.60;;;16.80;;
75246;SDS011;63844;50.042;19.224;2022-10-17T08:37:51;25.40;;;15.10;;
75246;SDS011;63844;50.042;19.224;2022-10-17T08:40:24;20.50;;;13.60;;
75246;SDS011;63844;50.042;19.224;2022-10-17T08:45:28;18.70;;;12.60;;
75246;SDS011;63844;50.042;19.224;2022-10-17T08:47:59;24.00;;;14.40;;
75246;SDS011;63844;50.042;19.224;2022-10-17T08:50:32;24.00;;;13.40;;
75246;SDS011;63844;50.042;19.224;2022-10-17T08:55:59;23.00;;;15.20;;
75246;SDS011;63844;50.042;19.224;2022-10-17T08:58:32;23.60;;;14.10;;
75246;SDS011;63844;50.042;19.224;2022-10-17T09:07:02;20.50;;;13.30;;
75246;SDS011;63844;50.042;19.224;2022-10-17T09:09:34;24.00;;;12.20;;
75246;SDS011;63844;50.042;19.224;2022-10-17T09:12:15;23.70;;;12.40;;
75246;SDS011;63844;50.042;19.224;2022-10-17T09:15:05;21.80;;;11.70;;
75246;SDS011;63844;50.042;19.224;2022-10-17T09:17:57;17.90;;;11.90;;
75246;SDS011;63844;50.042;19.224;2022-10-17T09:20:31;17.30;;;11.30;;
75246;SDS011;63844;50.042;19.224;2022-10-17T09:25:43;19.00;;;12.60;;
75246;SDS011;63844;50.042;19.224;2022-10-17T09:33:48;18.00;;;10.60;;
75246;SDS011;63844;50.042;19.224;2022-10-17T09:36:20;23.50;;;9.10;;
75246;SDS011;63844;50.042;19.224;2022-10-17T09:38:51;14.70;;;9.50;;
75246;SDS011;63844;50.042;19.224;2022-10-17T09:41:23;16.10;;;10.60;;
75246;SDS011;63844;50.042;19.224;2022-10-17T09:43:55;17.50;;;10.20;;
75246;SDS011;63844;50.042;19.224;2022-10-17T09:46:28;20.10;;;11.60;;
75246;SDS011;63844;50.042;19.224;2022-10-17T09:49:21;14.10;;;9.90;;
75246;SDS011;63844;50.042;19.224;2022-10-17T09:51:57;15.80;;;10.70;;
75246;SDS011;63844;50.042;19.224;2022-10-17T09:54:26;16.20;;;11.20;;
75246;SDS011;63844;50.042;19.224;2022-10-17T09:57:00;14.30;;;8.80;;
75246;SDS011;63844;50.042;19.224;2022-10-17T09:59:36;15.60;;;10.60;;
75246;SDS011;63844;50.042;19.224;2022-10-17T10:02:21;15.60;;;9.70;;
75246;SDS011;63844;50.042;19.224;2022-10-17T10:05:04;14.30;;;10.30;;
75246;SDS011;63844;50.042;19.224;2022-10-17T10:07:44;16.50;;;11.00;;
75246;SDS011;63844;50.042;19.224;2022-10-17T10:10:29;14.10;;;9.30;;
75246;SDS011;63844;50.042;19.224;2022-10-17T10:13:04;15.10;;;9.60;;
75246;SDS011;63844;50.042;19.224;2022-10-17T10:15:35;13.10;;;8.50;;
75246;SDS011;63844;50.042;19.224;2022-10-17T10:21:09;16.30;;;10.30;;
75246;SDS011;63844;50.042;19.224;2022-10-17T10:23:43;18.10;;;11.40;;
75246;SDS011;63844;50.042;19.224;2022-10-17T10:28:50;14.80;;;9.20;;
75246;SDS011;63844;50.042;19.224;2022-10-17T10:31:24;15.00;;;10.10;;
75246;SDS011;63844;50.042;19.224;2022-10-17T10:33:53;15.70;;;9.40;;
75246;SDS011;63844;50.042;19.224;2022-10-17T10:36:19;17.10;;;11.40;;
75246;SDS011;63844;50.042;19.224;2022-10-17T10:38:51;18.90;;;12.80;;
75246;SDS011;63844;50.042;19.224;2022-10-17T10:41:21;19.10;;;11.00;;
75246;SDS011;63844;50.042;19.224;2022-10-17T10:43:48;16.60;;;10.50;;
75246;SDS011;63844;50.042;19.224;2022-10-17T10:48:54;13.70;;;8.60;;
75246;SDS011;63844;50.042;19.224;2022-10-17T10:51:41;14.70;;;9.90;;
75246;SDS011;63844;50.042;19.224;2022-10-17T10:54:18;12.40;;;8.50;;
75246;SDS011;63844;50.042;19.224;2022-10-17T10:56:51;20.00;;;10.90;;
75246;SDS011;63844;50.042;19.224;2022-10-17T11:04:43;12.10;;;7.90;;
75246;SDS011;63844;50.042;19.224;2022-10-17T11:07:15;12.80;;;9.50;;
75246;SDS011;63844;50.042;19.224;2022-10-17T11:09:57;12.30;;;7.40;;
75246;SDS011;63844;50.042;19.224;2022-10-17T11:12:45;11.60;;;7.80;;
75246;SDS011;63844;50.042;19.224;2022-10-17T11:15:29;13.60;;;8.00;;
75246;SDS011;63844;50.042;19.224;2022-10-17T11:23:38;10.00;;;6.80;;
75246;SDS011;63844;50.042;19.224;2022-10-17T11:26:10;12.30;;;8.30;;
75246;SDS011;63844;50.042;19.224;2022-10-17T11:28:47;13.30;;;8.90;;
75246;SDS011;63844;50.042;19.224;2022-10-17T11:31:13;10.70;;;6.80;;
75246;SDS011;63844;50.042;19.224;2022-10-17T11:36:39;12.20;;;7.90;;
75246;SDS011;63844;50.042;19.224;2022-10-17T11:39:22;11.20;;;6.60;;
75246;SDS011;63844;50.042;19.224;2022-10-17T11:41:56;9.60;;;7.00;;
75246;SDS011;63844;50.042;19.224;2022-10-17T11:44:33;12.40;;;6.90;;
75246;SDS011;63844;50.042;19.224;2022-10-17T11:49:50;11.50;;;7.60;;
75246;SDS011;63844;50.042;19.224;2022-10-17T11:52:26;11.60;;;8.00;;
75246;SDS011;63844;50.042;19.224;2022-10-17T11:55:03;12.90;;;6.50;;
75246;SDS011;63844;50.042;19.224;2022-10-17T12:08:51;13.20;;;8.30;;
75246;SDS011;63844;50.042;19.224;2022-10-17T12:11:28;11.80;;;7.50;;
75246;SDS011;63844;50.042;19.224;2022-10-17T12:20:15;11.50;;;7.80;;
75246;SDS011;63844;50.042;19.224;2022-10-17T12:22:49;13.80;;;8.20;;
75246;SDS011;63844;50.042;19.224;2022-10-17T12:27:46;12.40;;;7.00;;
75246;SDS011;63844;50.042;19.224;2022-10-17T12:35:47;13.90;;;8.10;;
75246;SDS011;63844;50.042;19.224;2022-10-17T12:45:44;13.70;;;8.20;;
75246;SDS011;63844;50.042;19.224;2022-10-17T12:51:00;10.10;;;7.90;;
75246;SDS011;63844;50.042;19.224;2022-10-17T12:56:08;10.10;;;7.30;;
75246;SDS011;63844;50.042;19.224;2022-10-17T12:58:35;13.60;;;8.80;;
75246;SDS011;63844;50.042;19.224;2022-10-17T13:01:02;10.20;;;7.50;;
75246;SDS011;63844;50.042;19.224;2022-10-17T13:03:31;9.60;;;7.40;;
75246;SDS011;63844;50.042;19.224;2022-10-17T13:06:01;12.00;;;8.30;;
75246;SDS011;63844;50.042;19.224;2022-10-17T13:08:34;13.90;;;7.90;;
75246;SDS011;63844;50.042;19.224;2022-10-17T13:11:07;17.90;;;8.60;;
75246;SDS011;63844;50.042;19.224;2022-10-17T13:13:40;10.30;;;7.70;;
75246;SDS011;63844;50.042;19.224;2022-10-17T13:16:26;9.40;;;6.90;;
75246;SDS011;63844;50.042;19.224;2022-10-17T13:18:53;10.80;;;8.30;;
75246;SDS011;63844;50.042;19.224;2022-10-17T13:21:19;12.60;;;9.20;;
75246;SDS011;63844;50.042;19.224;2022-10-17T13:23:46;11.40;;;8.70;;
75246;SDS011;63844;50.042;19.224;2022-10-17T13:26:16;11.40;;;7.90;;
75246;SDS011;63844;50.042;19.224;2022-10-17T13:28:46;9.40;;;7.80;;
75246;SDS011;63844;50.042;19.224;2022-10-17T13:31:30;12.40;;;7.80;;
75246;SDS011;63844;50.042;19.224;2022-10-17T13:34:03;17.20;;;8.70;;
75246;SDS011;63844;50.042;19.224;2022-10-17T13:36:32;10.70;;;8.70;;
75246;SDS011;63844;50.042;19.224;2022-10-17T13:39:04;12.70;;;7.90;;
75246;SDS011;63844;50.042;19.224;2022-10-17T13:41:33;10.70;;;8.00;;
75246;SDS011;63844;50.042;19.224;2022-10-17T13:44:01;11.70;;;8.20;;
75246;SDS011;63844;50.042;19.224;2022-10-17T13:46:32;10.40;;;7.60;;
75246;SDS011;63844;50.042;19.224;2022-10-17T13:49:07;15.50;;;9.10;;
75246;SDS011;63844;50.042;19.224;2022-10-17T13:51:44;10.70;;;7.70;;
75246;SDS011;63844;50.042;19.224;2022-10-17T13:54:16;11.50;;;7.90;;
75246;SDS011;63844;50.042;19.224;2022-10-17T13:59:26;9.80;;;7.20;;
75246;SDS011;63844;50.042;19.224;2022-10-17T14:01:57;12.20;;;6.90;;
75246;SDS011;63844;50.042;19.224;2022-10-17T14:04:27;14.50;;;7.20;;
75246;SDS011;63844;50.042;19.224;2022-10-17T14:06:53;16.00;;;8.60;;
75246;SDS011;63844;50.042;19.224;2022-10-17T14:09:24;12.20;;;7.70;;
75246;SDS011;63844;50.042;19.224;2022-10-17T14:14:36;8.80;;;6.20;;
75246;SDS011;63844;50.042;19.224;2022-10-17T14:17:14;8.70;;;6.10;;
75246;SDS011;63844;50.042;19.224;2022-10-17T14:19:49;10.70;;;6.60;;
75246;SDS011;63844;50.042;19.224;2022-10-17T14:24:50;8.80;;;6.00;;
75246;SDS011;63844;50.042;19.224;2022-10-17T14:27:25;9.20;;;5.70;;
75246;SDS011;63844;50.042;19.224;2022-10-17T14:29:57;8.60;;;5.50;;
75246;SDS011;63844;50.042;19.224;2022-10-17T14:32:30;7.20;;;5.80;;
75246;SDS011;63844;50.042;19.224;2022-10-17T14:35:00;11.20;;;6.50;;
75246;SDS011;63844;50.042;19.224;2022-10-17T14:39:58;9.30;;;6.00;;
75246;SDS011;63844;50.042;19.224;2022-10-17T14:42:25;9.80;;;6.60;;
75246;SDS011;63844;50.042;19.224;2022-10-17T14:44:53;9.80;;;6.80;;
75246;SDS011;63844;50.042;19.224;2022-10-17T14:47:25;7.40;;;6.10;;
75246;SDS011;63844;50.042;19.224;2022-10-17T14:53:01;8.30;;;5.70;;
75246;SDS011;63844;50.042;19.224;2022-10-17T14:55:32;9.80;;;6.20;;
75246;SDS011;63844;50.042;19.224;2022-10-17T14:58:00;10.30;;;6.70;;
75246;SDS011;63844;50.042;19.224;2022-10-17T15:00:40;9.70;;;6.30;;
75246;SDS011;63844;50.042;19.224;2022-10-17T15:03:06;10.30;;;6.70;;
75246;SDS011;63844;50.042;19.224;2022-10-17T15:05:33;10.20;;;7.10;;
75246;SDS011;63844;50.042;19.224;2022-10-17T15:08:00;10.60;;;6.80;;
75246;SDS011;63844;50.042;19.224;2022-10-17T15:10:29;11.80;;;6.80;;
75246;SDS011;63844;50.042;19.224;2022-10-17T15:12:58;10.70;;;6.50;;
75246;SDS011;63844;50.042;19.224;2022-10-17T15:15:30;11.20;;;6.10;;
75246;SDS011;63844;50.042;19.224;2022-10-17T15:17:57;11.00;;;7.10;;
75246;SDS011;63844;50.042;19.224;2022-10-17T15:20:23;12.60;;;6.90;;
75246;SDS011;63844;50.042;19.224;2022-10-17T15:22:53;8.80;;;6.00;;
75246;SDS011;63844;50.042;19.224;2022-10-17T15:25:20;8.40;;;6.20;;
75246;SDS011;63844;50.042;19.224;2022-10-17T15:27:47;17.20;;;6.00;;
75246;SDS011;63844;50.042;19.224;2022-10-17T15:30:17;12.40;;;5.60;;
75246;SDS011;63844;50.042;19.224;2022-10-17T15:32:45;10.90;;;5.90;;
75246;SDS011;63844;50.042;19.224;2022-10-17T15:35:11;7.80;;;6.30;;
75246;SDS011;63844;50.042;19.224;2022-10-17T15:37:38;11.00;;;6.40;;
75246;SDS011;63844;50.042;19.224;2022-10-17T15:40:05;12.60;;;6.80;;
75246;SDS011;63844;50.042;19.224;2022-10-17T15:42:32;7.90;;;6.10;;
75246;SDS011;63844;50.042;19.224;2022-10-17T15:44:58;9.60;;;5.70;;
75246;SDS011;63844;50.042;19.224;2022-10-17T15:47:28;10.00;;;6.00;;
75246;SDS011;63844;50.042;19.224;2022-10-17T15:50:00;9.00;;;5.30;;
75246;SDS011;63844;50.042;19.224;2022-10-17T15:52:27;8.70;;;5.60;;
75246;SDS011;63844;50.042;19.224;2022-10-17T15:54:53;13.40;;;5.40;;
75246;SDS011;63844;50.042;19.224;2022-10-17T15:57:21;12.70;;;5.90;;
75246;SDS011;63844;50.042;19.224;2022-10-17T15:59:51;15.80;;;6.50;;
75246;SDS011;63844;50.042;19.224;2022-10-17T16:02:21;12.30;;;6.80;;
75246;SDS011;63844;50.042;19.224;2022-10-17T16:04:49;12.60;;;6.30;;
75246;SDS011;63844;50.042;19.224;2022-10-17T16:07:17;12.30;;;7.30;;
75246;SDS011;63844;50.042;19.224;2022-10-17T16:09:44;12.10;;;6.40;;
75246;SDS011;63844;50.042;19.224;2022-10-17T16:12:12;8.90;;;5.80;;
75246;SDS011;63844;50.042;19.224;2022-10-17T16:14:42;9.90;;;6.90;;
75246;SDS011;63844;50.042;19.224;2022-10-17T16:17:11;11.20;;;6.90;;
75246;SDS011;63844;50.042;19.224;2022-10-17T16:19:39;17.30;;;8.50;;
75246;SDS011;63844;50.042;19.224;2022-10-17T16:22:08;15.30;;;10.60;;
75246;SDS011;63844;50.042;19.224;2022-10-17T16:24:42;13.60;;;10.10;;
75246;SDS011;63844;50.042;19.224;2022-10-17T16:29:35;14.60;;;9.30;;
75246;SDS011;63844;50.042;19.224;2022-10-17T16:32:01;13.20;;;8.80;;
75246;SDS011;63844;50.042;19.224;2022-10-17T16:36:55;13.70;;;7.00;;
75246;SDS011;63844;50.042;19.224;2022-10-17T16:39:22;11.80;;;8.60;;
75246;SDS011;63844;50.042;19.224;2022-10-17T16:41:48;14.20;;;6.80;;
75246;SDS011;63844;50.042;19.224;2022-10-17T16:44:14;11.80;;;6.50;;
75246;SDS011;63844;50.042;19.224;2022-10-17T16:46:43;14.00;;;7.00;;
75246;SDS011;63844;50.042;19.224;2022-10-17T16:51:35;14.30;;;7.40;;
75246;SDS011;63844;50.042;19.224;2022-10-17T16:56:29;19.70;;;10.10;;
75246;SDS011;63844;50.042;19.224;2022-10-17T16:58:58;16.90;;;8.00;;
75246;SDS011;63844;50.042;19.224;2022-10-17T17:01:26;17.00;;;9.50;;
75246;SDS011;63844;50.042;19.224;2022-10-17T17:03:56;16.20;;;8.90;;